sensor_id;sensor_type;location;lat;lon;timestamp;pressure;altitude;pressure_sealevel;temperature;humidity
56042;BME280;48756;41.374;2.066;2023-05-23T00:00:22;100814.59;;;18.04;75.75
56042;BME280;48756;41.374;2.066;2023-05-23T00:02:47;100811.69;;;18.12;75.78
56042;BME280;48756;41.374;2.066;2023-05-23T00:05:13;100805.91;;;18.02;76.47
56042;BME280;48756;41.374;2.066;2023-05-23T00:07:39;100819.56;;;17.90;76.60
56042;BME280;48756;41.374;2.066;2023-05-23T00:10:05;100809.91;;;18.12;76.58
56042;BME280;48756;41.374;2.066;2023-05-23T00:12:30;100818.56;;;18.16;75.21
56042;BME280;48756;41.374;2.066;2023-05-23T00:14:57;100823.28;;;17.84;76.92
56042;BME280;48756;41.374;2.066;2023-05-23T00:17:23;100810.28;;;17.80;77.46
56042;BME280;48756;41.374;2.066;2023-05-23T00:19:50;100807.06;;;17.95;76.28
56042;BME280;48756;41.374;2.066;2023-05-23T00:22:16;100799.41;;;17.89;76.59
56042;BME280;48756;41.374;2.066;2023-05-23T00:24:41;100803.19;;;18.03;76.82
56042;BME280;48756;41.374;2.066;2023-05-23T00:27:07;100802.91;;;18.11;75.94
56042;BME280;48756;41.374;2.066;2023-05-23T00:29:32;100801.56;;;18.23;76.00
56042;BME280;48756;41.374;2.066;2023-05-23T00:31:57;100807.03;;;18.18;75.78
56042;BME280;48756;41.374;2.066;2023-05-23T00:34:23;100804.19;;;18.23;75.62
56042;BME280;48756;41.374;2.066;2023-05-23T00:36:48;100808.56;;;18.24;75.29
56042;BME280;48756;41.374;2.066;2023-05-23T00:39:14;100800.75;;;18.21;75.70
56042;BME280;48756;41.374;2.066;2023-05-23T00:41:45;100807.28;;;18.12;76.00
56042;BME280;48756;41.374;2.066;2023-05-23T00:44:11;100798.97;;;18.21;75.08
56042;BME280;48756;41.374;2.066;2023-05-23T00:46:37;100800.69;;;18.00;76.23
56042;BME280;48756;41.374;2.066;2023-05-23T00:49:02;100802.91;;;17.64;77.94
56042;BME280;48756;41.374;2.066;2023-05-23T00:51:28;100792.22;;;17.45;78.44
56042;BME280;48756;41.374;2.066;2023-05-23T00:53:54;100802.22;;;17.36;79.57
56042;BME280;48756;41.374;2.066;2023-05-23T00:56:20;100792.31;;;17.42;80.38
56042;BME280;48756;41.374;2.066;2023-05-23T00:58:45;100789.69;;;17.67;80.78
56042;BME280;48756;41.374;2.066;2023-05-23T01:01:11;100785.69;;;17.56;79.71
56042;BME280;48756;41.374;2.066;2023-05-23T01:03:37;100782.66;;;17.43;81.31
56042;BME280;48756;41.374;2.066;2023-05-23T01:06:02;100795.28;;;17.33;82.02
56042;BME280;48756;41.374;2.066;2023-05-23T01:08:28;100784.03;;;17.53;81.93
56042;BME280;48756;41.374;2.066;2023-05-23T01:10:53;100790.78;;;17.60;80.81
56042;BME280;48756;41.374;2.066;2023-05-23T01:18:17;100777.91;;;17.76;80.04
56042;BME280;48756;41.374;2.066;2023-05-23T01:20:55;100777.66;;;17.82;78.99
56042;BME280;48756;41.374;2.066;2023-05-23T01:26:10;100772.47;;;17.81;80.13
56042;BME280;48756;41.374;2.066;2023-05-23T01:28:42;100772.81;;;17.71;78.97
56042;BME280;48756;41.374;2.066;2023-05-23T01:31:09;100774.84;;;17.63;79.45
56042;BME280;48756;41.374;2.066;2023-05-23T01:33:35;100769.94;;;17.54;80.32
56042;BME280;48756;41.374;2.066;2023-05-23T01:36:02;100765.78;;;17.72;78.67
56042;BME280;48756;41.374;2.066;2023-05-23T01:38:28;100757.25;;;17.64;78.92
56042;BME280;48756;41.374;2.066;2023-05-23T01:40:53;100754.81;;;17.59;78.49
56042;BME280;48756;41.374;2.066;2023-05-23T01:43:19;100754.53;;;17.67;77.51
56042;BME280;48756;41.374;2.066;2023-05-23T01:45:45;100761.47;;;17.46;77.44
56042;BME280;48756;41.374;2.066;2023-05-23T01:48:11;100755.44;;;17.66;78.54
56042;BME280;48756;41.374;2.066;2023-05-23T01:50:37;100754.25;;;17.74;77.29
56042;BME280;48756;41.374;2.066;2023-05-23T01:53:03;100752.91;;;17.86;76.07
56042;BME280;48756;41.374;2.066;2023-05-23T01:55:29;100760.53;;;17.94;75.92
56042;BME280;48756;41.374;2.066;2023-05-23T01:57:55;100766.72;;;17.93;75.58
56042;BME280;48756;41.374;2.066;2023-05-23T02:00:21;100758.94;;;17.90;75.92
56042;BME280;48756;41.374;2.066;2023-05-23T02:02:47;100757.53;;;18.03;76.44
56042;BME280;48756;41.374;2.066;2023-05-23T02:05:12;100763.09;;;17.95;76.07
56042;BME280;48756;41.374;2.066;2023-05-23T02:07:38;100762.59;;;17.62;76.43
56042;BME280;48756;41.374;2.066;2023-05-23T02:10:05;100759.94;;;17.39;77.95
56042;BME280;48756;41.374;2.066;2023-05-23T02:12:30;100774.50;;;17.26;79.07
56042;BME280;48756;41.374;2.066;2023-05-23T02:14:56;100765.81;;;17.24;78.42
56042;BME280;48756;41.374;2.066;2023-05-23T02:17:21;100770.97;;;17.27;78.52
56042;BME280;48756;41.374;2.066;2023-05-23T02:19:48;100771.66;;;17.55;78.12
56042;BME280;48756;41.374;2.066;2023-05-23T02:22:13;100777.38;;;17.66;76.69
56042;BME280;48756;41.374;2.066;2023-05-23T02:24:39;100773.81;;;17.69;77.22
56042;BME280;48756;41.374;2.066;2023-05-23T02:27:04;100775.81;;;17.84;76.44
56042;BME280;48756;41.374;2.066;2023-05-23T02:29:30;100774.06;;;17.85;76.48
56042;BME280;48756;41.374;2.066;2023-05-23T02:31:55;100769.63;;;17.85;76.20
56042;BME280;48756;41.374;2.066;2023-05-23T02:34:21;100770.28;;;17.92;76.34
56042;BME280;48756;41.374;2.066;2023-05-23T02:36:46;100771.47;;;17.83;75.91
56042;BME280;48756;41.374;2.066;2023-05-23T02:39:11;100766.34;;;17.80;76.45
56042;BME280;48756;41.374;2.066;2023-05-23T02:41:37;100772.25;;;17.62;76.64
56042;BME280;48756;41.374;2.066;2023-05-23T02:44:02;100766.63;;;17.49;78.14
56042;BME280;48756;41.374;2.066;2023-05-23T02:46:28;100767.69;;;17.68;77.63
56042;BME280;48756;41.374;2.066;2023-05-23T02:48:53;100765.97;;;17.67;77.83
56042;BME280;48756;41.374;2.066;2023-05-23T02:51:19;100766.38;;;17.79;77.91
56042;BME280;48756;41.374;2.066;2023-05-23T02:53:48;100763.19;;;17.70;78.44
56042;BME280;48756;41.374;2.066;2023-05-23T02:56:13;100767.22;;;17.56;78.42
56042;BME280;48756;41.374;2.066;2023-05-23T02:58:40;100764.38;;;17.38;79.03
56042;BME280;48756;41.374;2.066;2023-05-23T03:01:05;100758.81;;;17.23;80.82
56042;BME280;48756;41.374;2.066;2023-05-23T03:03:32;100766.66;;;17.24;80.73
56042;BME280;48756;41.374;2.066;2023-05-23T03:05:57;100765.22;;;17.39;80.82
56042;BME280;48756;41.374;2.066;2023-05-23T03:08:23;100754.91;;;17.33;79.85
56042;BME280;48756;41.374;2.066;2023-05-23T03:10:49;100749.47;;;17.37;81.39
56042;BME280;48756;41.374;2.066;2023-05-23T03:13:14;100747.09;;;17.31;79.94
56042;BME280;48756;41.374;2.066;2023-05-23T03:15:40;100736.03;;;17.45;80.15
56042;BME280;48756;41.374;2.066;2023-05-23T03:18:06;100741.63;;;17.36;80.81
56042;BME280;48756;41.374;2.066;2023-05-23T03:20:31;100747.50;;;17.21;81.03
56042;BME280;48756;41.374;2.066;2023-05-23T03:22:57;100741.38;;;17.20;81.31
56042;BME280;48756;41.374;2.066;2023-05-23T03:25:22;100747.06;;;17.08;82.06
56042;BME280;48756;41.374;2.066;2023-05-23T03:27:48;100744.78;;;16.97;83.11
56042;BME280;48756;41.374;2.066;2023-05-23T03:30:13;100745.88;;;16.92;82.47
56042;BME280;48756;41.374;2.066;2023-05-23T03:32:38;100743.25;;;16.92;83.06
56042;BME280;48756;41.374;2.066;2023-05-23T03:35:04;100740.03;;;16.83;83.65
56042;BME280;48756;41.374;2.066;2023-05-23T03:37:29;100739.06;;;16.86;83.85
56042;BME280;48756;41.374;2.066;2023-05-23T03:39:55;100741.63;;;16.88;83.75
56042;BME280;48756;41.374;2.066;2023-05-23T03:42:20;100739.13;;;16.58;85.67
56042;BME280;48756;41.374;2.066;2023-05-23T03:44:46;100745.31;;;16.57;86.01
56042;BME280;48756;41.374;2.066;2023-05-23T03:47:11;100741.16;;;16.50;85.32
56042;BME280;48756;41.374;2.066;2023-05-23T03:49:36;100738.28;;;16.58;86.19
56042;BME280;48756;41.374;2.066;2023-05-23T03:52:02;100739.41;;;16.77;84.55
56042;BME280;48756;41.374;2.066;2023-05-23T03:54:27;100734.44;;;16.93;84.36
56042;BME280;48756;41.374;2.066;2023-05-23T03:56:53;100734.78;;;16.83;84.66
56042;BME280;48756;41.374;2.066;2023-05-23T03:59:18;100727.41;;;16.68;85.20
56042;BME280;48756;41.374;2.066;2023-05-23T04:01:43;100738.47;;;16.51;86.02
56042;BME280;48756;41.374;2.066;2023-05-23T04:04:09;100732.19;;;16.29;86.21
56042;BME280;48756;41.374;2.066;2023-05-23T04:06:34;100735.66;;;16.31;87.57
56042;BME280;48756;41.374;2.066;2023-05-23T04:09:00;100737.16;;;16.38;87.44
56042;BME280;48756;41.374;2.066;2023-05-23T04:11:26;100740.34;;;16.21;87.19
56042;BME280;48756;41.374;2.066;2023-05-23T04:13:52;100736.69;;;16.26;88.02
56042;BME280;48756;41.374;2.066;2023-05-23T04:16:17;100748.66;;;16.36;87.97
56042;BME280;48756;41.374;2.066;2023-05-23T04:18:42;100753.91;;;16.36;88.67
56042;BME280;48756;41.374;2.066;2023-05-23T04:21:11;100748.59;;;16.37;86.92
56042;BME280;48756;41.374;2.066;2023-05-23T04:23:36;100747.19;;;16.53;86.97
56042;BME280;48756;41.374;2.066;2023-05-23T04:26:02;100750.91;;;16.73;85.31
56042;BME280;48756;41.374;2.066;2023-05-23T04:28:29;100745.75;;;16.95;84.33
56042;BME280;48756;41.374;2.066;2023-05-23T04:30:55;100734.31;;;16.71;83.96
56042;BME280;48756;41.374;2.066;2023-05-23T04:33:20;100731.69;;;16.44;86.48
56042;BME280;48756;41.374;2.066;2023-05-23T04:35:46;100726.75;;;16.35;86.65
56042;BME280;48756;41.374;2.066;2023-05-23T04:38:11;100719.31;;;16.48;86.55
56042;BME280;48756;41.374;2.066;2023-05-23T04:40:37;100730.72;;;16.47;86.33
56042;BME280;48756;41.374;2.066;2023-05-23T04:43:03;100731.31;;;16.30;87.13
56042;BME280;48756;41.374;2.066;2023-05-23T04:45:28;100734.06;;;16.26;87.52
56042;BME280;48756;41.374;2.066;2023-05-23T04:47:53;100728.53;;;16.35;88.28
56042;BME280;48756;41.374;2.066;2023-05-23T04:50:19;100728.59;;;16.05;88.49
56042;BME280;48756;41.374;2.066;2023-05-23T04:52:47;100726.38;;;15.93;90.67
56042;BME280;48756;41.374;2.066;2023-05-23T04:55:12;100726.50;;;16.43;88.30
56042;BME280;48756;41.374;2.066;2023-05-23T04:57:37;100726.28;;;16.22;88.45
56042;BME280;48756;41.374;2.066;2023-05-23T05:00:03;100727.81;;;16.30;87.90
56042;BME280;48756;41.374;2.066;2023-05-23T05:02:35;100731.19;;;16.07;88.80
56042;BME280;48756;41.374;2.066;2023-05-23T05:05:00;100732.38;;;15.97;89.57
56042;BME280;48756;41.374;2.066;2023-05-23T05:07:26;100734.00;;;16.01;89.56
56042;BME280;48756;41.374;2.066;2023-05-23T05:09:53;100738.38;;;16.28;88.76
56042;BME280;48756;41.374;2.066;2023-05-23T05:12:18;100733.53;;;16.16;89.52
56042;BME280;48756;41.374;2.066;2023-05-23T05:14:44;100740.59;;;16.40;87.87
56042;BME280;48756;41.374;2.066;2023-05-23T05:17:09;100737.28;;;16.35;86.82
56042;BME280;48756;41.374;2.066;2023-05-23T05:19:35;100733.56;;;16.41;87.12
56042;BME280;48756;41.374;2.066;2023-05-23T05:22:00;100739.03;;;16.08;88.28
56042;BME280;48756;41.374;2.066;2023-05-23T05:24:26;100739.00;;;16.10;88.98
56042;BME280;48756;41.374;2.066;2023-05-23T05:26:52;100745.72;;;16.18;88.73
56042;BME280;48756;41.374;2.066;2023-05-23T05:29:18;100737.25;;;16.62;86.66
56042;BME280;48756;41.374;2.066;2023-05-23T05:31:43;100740.59;;;16.40;87.56
56042;BME280;48756;41.374;2.066;2023-05-23T05:34:09;100746.06;;;16.61;85.62
56042;BME280;48756;41.374;2.066;2023-05-23T05:36:35;100745.25;;;16.59;86.71
56042;BME280;48756;41.374;2.066;2023-05-23T05:39:00;100747.03;;;16.32;87.25
56042;BME280;48756;41.374;2.066;2023-05-23T05:41:26;100743.69;;;16.53;86.45
56042;BME280;48756;41.374;2.066;2023-05-23T05:43:51;100750.97;;;16.71;86.43
56042;BME280;48756;41.374;2.066;2023-05-23T05:46:17;100758.16;;;16.66;86.66
56042;BME280;48756;41.374;2.066;2023-05-23T05:48:42;100748.84;;;16.82;84.58
56042;BME280;48756;41.374;2.066;2023-05-23T05:51:08;100752.97;;;16.90;85.33
56042;BME280;48756;41.374;2.066;2023-05-23T05:53:33;100751.16;;;16.92;83.74
56042;BME280;48756;41.374;2.066;2023-05-23T05:55:58;100749.88;;;16.78;84.48
56042;BME280;48756;41.374;2.066;2023-05-23T05:58:24;100759.03;;;16.92;84.65
56042;BME280;48756;41.374;2.066;2023-05-23T06:00:49;100744.66;;;17.02;83.78
56042;BME280;48756;41.374;2.066;2023-05-23T06:03:14;100758.84;;;16.98;84.83
56042;BME280;48756;41.374;2.066;2023-05-23T06:05:40;100761.25;;;17.04;83.01
56042;BME280;48756;41.374;2.066;2023-05-23T06:08:06;100763.78;;;17.07;83.71
56042;BME280;48756;41.374;2.066;2023-05-23T06:10:31;100755.34;;;17.45;82.80
56042;BME280;48756;41.374;2.066;2023-05-23T06:12:57;100747.63;;;17.63;80.49
56042;BME280;48756;41.374;2.066;2023-05-23T06:15:22;100752.47;;;17.52;80.67
56042;BME280;48756;41.374;2.066;2023-05-23T06:17:48;100747.50;;;17.67;81.38
56042;BME280;48756;41.374;2.066;2023-05-23T06:20:13;100755.06;;;17.77;81.17
56042;BME280;48756;41.374;2.066;2023-05-23T06:22:39;100762.91;;;18.22;79.07
56042;BME280;48756;41.374;2.066;2023-05-23T06:25:04;100767.72;;;18.34;77.78
56042;BME280;48756;41.374;2.066;2023-05-23T06:27:30;100751.03;;;18.12;79.43
56042;BME280;48756;41.374;2.066;2023-05-23T06:29:55;100751.09;;;17.88;79.24
56042;BME280;48756;41.374;2.066;2023-05-23T06:32:21;100751.03;;;17.90;79.74
56042;BME280;48756;41.374;2.066;2023-05-23T06:34:46;100745.38;;;17.99;79.70
56042;BME280;48756;41.374;2.066;2023-05-23T06:37:11;100739.72;;;17.86;79.46
56042;BME280;48756;41.374;2.066;2023-05-23T06:39:37;100740.88;;;17.79;79.40
56042;BME280;48756;41.374;2.066;2023-05-23T06:42:02;100751.19;;;18.07;78.98
56042;BME280;48756;41.374;2.066;2023-05-23T06:44:28;100742.69;;;18.00;79.21
56042;BME280;48756;41.374;2.066;2023-05-23T06:46:53;100753.91;;;18.05;78.33
56042;BME280;48756;41.374;2.066;2023-05-23T06:49:22;100756.09;;;18.38;76.94
56042;BME280;48756;41.374;2.066;2023-05-23T06:51:47;100752.44;;;18.20;77.51
56042;BME280;48756;41.374;2.066;2023-05-23T06:54:13;100760.41;;;18.61;75.25
56042;BME280;48756;41.374;2.066;2023-05-23T06:56:38;100754.78;;;18.70;74.85
56042;BME280;48756;41.374;2.066;2023-05-23T06:59:03;100755.44;;;18.95;74.81
56042;BME280;48756;41.374;2.066;2023-05-23T07:01:32;100748.28;;;18.77;74.04
56042;BME280;48756;41.374;2.066;2023-05-23T07:03:57;100755.91;;;18.64;75.25
56042;BME280;48756;41.374;2.066;2023-05-23T07:06:22;100750.28;;;18.72;74.47
56042;BME280;48756;41.374;2.066;2023-05-23T07:08:51;100749.69;;;18.86;74.25
56042;BME280;48756;41.374;2.066;2023-05-23T07:11:16;100748.72;;;18.88;74.71
56042;BME280;48756;41.374;2.066;2023-05-23T07:13:49;100747.44;;;18.97;73.54
56042;BME280;48756;41.374;2.066;2023-05-23T07:16:15;100756.97;;;19.01;73.25
56042;BME280;48756;41.374;2.066;2023-05-23T07:18:40;100751.38;;;19.27;72.42
56042;BME280;48756;41.374;2.066;2023-05-23T07:21:05;100749.59;;;19.28;71.74
56042;BME280;48756;41.374;2.066;2023-05-23T07:23:31;100750.66;;;19.24;71.91
56042;BME280;48756;41.374;2.066;2023-05-23T07:25:57;100763.44;;;19.33;72.19
56042;BME280;48756;41.374;2.066;2023-05-23T07:28:23;100761.44;;;19.38;73.66
56042;BME280;48756;41.374;2.066;2023-05-23T07:30:48;100743.06;;;19.55;68.91
56042;BME280;48756;41.374;2.066;2023-05-23T07:33:14;100755.63;;;19.88;71.85
56042;BME280;48756;41.374;2.066;2023-05-23T07:35:39;100752.44;;;20.17;66.77
56042;BME280;48756;41.374;2.066;2023-05-23T07:38:04;100766.13;;;20.79;68.52
56042;BME280;48756;41.374;2.066;2023-05-23T07:40:30;100758.44;;;20.74;64.37
56042;BME280;48756;41.374;2.066;2023-05-23T07:42:55;100749.34;;;21.13;62.21
56042;BME280;48756;41.374;2.066;2023-05-23T07:45:21;100753.97;;;21.43;61.45
56042;BME280;48756;41.374;2.066;2023-05-23T07:47:47;100753.22;;;21.23;66.24
56042;BME280;48756;41.374;2.066;2023-05-23T07:50:13;100768.97;;;20.04;74.96
56042;BME280;48756;41.374;2.066;2023-05-23T07:52:39;100769.34;;;19.96;77.02
56042;BME280;48756;41.374;2.066;2023-05-23T07:55:05;100760.97;;;19.49;79.13
56042;BME280;48756;41.374;2.066;2023-05-23T07:57:31;100764.16;;;19.37;82.74
56042;BME280;48756;41.374;2.066;2023-05-23T07:59:56;100763.81;;;19.44;83.75
56042;BME280;48756;41.374;2.066;2023-05-23T08:02:22;100775.00;;;19.31;84.98
56042;BME280;48756;41.374;2.066;2023-05-23T08:04:47;100764.03;;;18.80;85.30
56042;BME280;48756;41.374;2.066;2023-05-23T08:07:13;100761.06;;;18.24;89.25
56042;BME280;48756;41.374;2.066;2023-05-23T08:09:38;100756.44;;;17.62;92.46
56042;BME280;48756;41.374;2.066;2023-05-23T08:12:06;100753.88;;;17.60;93.75
56042;BME280;48756;41.374;2.066;2023-05-23T08:14:32;100752.97;;;17.38;94.35
56042;BME280;48756;41.374;2.066;2023-05-23T08:16:58;100745.97;;;17.37;95.42
56042;BME280;48756;41.374;2.066;2023-05-23T08:19:23;100751.84;;;17.45;94.94
56042;BME280;48756;41.374;2.066;2023-05-23T08:21:48;100757.16;;;17.67;96.34
56042;BME280;48756;41.374;2.066;2023-05-23T08:24:14;100750.19;;;17.64;94.66
56042;BME280;48756;41.374;2.066;2023-05-23T08:26:40;100755.66;;;17.83;95.65
56042;BME280;48756;41.374;2.066;2023-05-23T08:29:06;100750.19;;;18.11;92.74
56042;BME280;48756;41.374;2.066;2023-05-23T08:31:32;100752.53;;;18.39;93.44
56042;BME280;48756;41.374;2.066;2023-05-23T08:33:58;100744.41;;;19.06;92.44
56042;BME280;48756;41.374;2.066;2023-05-23T08:36:23;100755.94;;;19.24;90.67
56042;BME280;48756;41.374;2.066;2023-05-23T08:38:49;100751.88;;;19.36;89.18
56042;BME280;48756;41.374;2.066;2023-05-23T08:41:18;100755.69;;;19.68;89.00
56042;BME280;48756;41.374;2.066;2023-05-23T08:43:44;100755.13;;;19.99;88.66
56042;BME280;48756;41.374;2.066;2023-05-23T08:46:10;100757.56;;;19.84;89.20
56042;BME280;48756;41.374;2.066;2023-05-23T08:48:36;100750.84;;;19.96;88.46
56042;BME280;48756;41.374;2.066;2023-05-23T08:51:02;100747.91;;;20.02;88.11
56042;BME280;48756;41.374;2.066;2023-05-23T08:53:28;100752.41;;;20.00;87.49
56042;BME280;48756;41.374;2.066;2023-05-23T08:55:55;100757.94;;;20.13;85.36
56042;BME280;48756;41.374;2.066;2023-05-23T08:58:23;100753.84;;;20.61;83.25
56042;BME280;48756;41.374;2.066;2023-05-23T09:00:53;100751.09;;;20.97;83.24
56042;BME280;48756;41.374;2.066;2023-05-23T09:03:22;100756.63;;;20.92;82.17
56042;BME280;48756;41.374;2.066;2023-05-23T09:05:48;100752.88;;;20.96;81.82
56042;BME280;48756;41.374;2.066;2023-05-23T09:08:13;100756.03;;;20.70;81.32
56042;BME280;48756;41.374;2.066;2023-05-23T09:10:39;100759.91;;;20.45;82.09
56042;BME280;48756;41.374;2.066;2023-05-23T09:13:05;100772.75;;;20.53;82.82
56042;BME280;48756;41.374;2.066;2023-05-23T09:15:30;100773.06;;;20.99;81.76
56042;BME280;48756;41.374;2.066;2023-05-23T09:17:59;100764.59;;;21.43;79.33
56042;BME280;48756;41.374;2.066;2023-05-23T09:20:26;100764.97;;;21.52;76.64
56042;BME280;48756;41.374;2.066;2023-05-23T09:22:53;100763.69;;;21.91;76.65
56042;BME280;48756;41.374;2.066;2023-05-23T09:25:18;100765.84;;;22.16;76.04
56042;BME280;48756;41.374;2.066;2023-05-23T09:27:44;100768.81;;;21.78;75.25
56042;BME280;48756;41.374;2.066;2023-05-23T09:30:10;100774.28;;;21.91;74.83
56042;BME280;48756;41.374;2.066;2023-05-23T09:32:35;100771.31;;;22.28;75.18
56042;BME280;48756;41.374;2.066;2023-05-23T09:35:02;100769.78;;;22.54;72.72
56042;BME280;48756;41.374;2.066;2023-05-23T09:37:31;100769.41;;;22.60;70.25
56042;BME280;48756;41.374;2.066;2023-05-23T09:39:59;100765.47;;;22.98;67.57
56042;BME280;48756;41.374;2.066;2023-05-23T09:42:25;100767.88;;;23.45;69.36
56042;BME280;48756;41.374;2.066;2023-05-23T09:44:55;100773.38;;;23.13;69.28
56042;BME280;48756;41.374;2.066;2023-05-23T09:47:21;100766.13;;;24.01;67.20
56042;BME280;48756;41.374;2.066;2023-05-23T09:49:46;100768.09;;;24.38;61.02
56042;BME280;48756;41.374;2.066;2023-05-23T09:52:12;100766.03;;;23.88;63.54
56042;BME280;48756;41.374;2.066;2023-05-23T09:54:37;100766.00;;;23.61;63.90
56042;BME280;48756;41.374;2.066;2023-05-23T09:57:03;100755.25;;;24.04;63.84
56042;BME280;48756;41.374;2.066;2023-05-23T09:59:30;100755.47;;;24.55;62.90
56042;BME280;48756;41.374;2.066;2023-05-23T10:01:56;100750.59;;;25.50;60.34
56042;BME280;48756;41.374;2.066;2023-05-23T10:04:24;100747.03;;;25.88;54.92
56042;BME280;48756;41.374;2.066;2023-05-23T10:06:53;100746.81;;;25.78;54.55
56042;BME280;48756;41.374;2.066;2023-05-23T10:09:20;100745.31;;;25.12;55.16
56042;BME280;48756;41.374;2.066;2023-05-23T10:14:31;100743.66;;;25.97;54.21
56042;BME280;48756;41.374;2.066;2023-05-23T10:19:34;100737.94;;;26.14;53.96
56042;BME280;48756;41.374;2.066;2023-05-23T10:22:03;100729.69;;;26.41;50.66
56042;BME280;48756;41.374;2.066;2023-05-23T10:24:30;100729.88;;;26.51;53.34
56042;BME280;48756;41.374;2.066;2023-05-23T10:26:56;100728.72;;;26.77;50.08
56042;BME280;48756;41.374;2.066;2023-05-23T10:29:26;100717.31;;;26.86;49.80
56042;BME280;48756;41.374;2.066;2023-05-23T10:31:53;100718.75;;;26.09;49.29
56042;BME280;48756;41.374;2.066;2023-05-23T10:39:24;100714.91;;;26.24;48.60
56042;BME280;48756;41.374;2.066;2023-05-23T10:42:00;100711.16;;;26.27;49.07
56042;BME280;48756;41.374;2.066;2023-05-23T10:44:30;100707.34;;;26.89;47.89
56042;BME280;48756;41.374;2.066;2023-05-23T10:46:56;100711.63;;;27.47;48.31
56042;BME280;48756;41.374;2.066;2023-05-23T10:52:02;100708.56;;;26.96;47.18
56042;BME280;48756;41.374;2.066;2023-05-23T10:54:33;100703.81;;;26.88;46.34
56042;BME280;48756;41.374;2.066;2023-05-23T10:57:02;100694.50;;;27.27;45.09
56042;BME280;48756;41.374;2.066;2023-05-23T10:59:28;100693.81;;;26.33;48.45
56042;BME280;48756;41.374;2.066;2023-05-23T11:01:54;100695.69;;;27.68;46.29
56042;BME280;48756;41.374;2.066;2023-05-23T11:04:26;100695.09;;;27.42;46.32
56042;BME280;48756;41.374;2.066;2023-05-23T11:06:53;100690.81;;;28.05;46.73
56042;BME280;48756;41.374;2.066;2023-05-23T11:09:19;100708.69;;;27.72;46.84
56042;BME280;48756;41.374;2.066;2023-05-23T11:11:52;100700.59;;;27.07;47.45
56042;BME280;48756;41.374;2.066;2023-05-23T11:19:36;100703.41;;;27.17;46.83
56042;BME280;48756;41.374;2.066;2023-05-23T11:22:02;100698.09;;;26.93;47.19
56042;BME280;48756;41.374;2.066;2023-05-23T11:27:11;100702.84;;;26.89;46.41
56042;BME280;48756;41.374;2.066;2023-05-23T11:29:36;100700.78;;;26.81;47.48
56042;BME280;48756;41.374;2.066;2023-05-23T11:32:08;100691.59;;;27.19;46.46
56042;BME280;48756;41.374;2.066;2023-05-23T11:34:34;100697.00;;;27.73;45.41
56042;BME280;48756;41.374;2.066;2023-05-23T11:37:02;100706.25;;;26.80;47.89
56042;BME280;48756;41.374;2.066;2023-05-23T11:39:27;100704.22;;;27.28;45.55
56042;BME280;48756;41.374;2.066;2023-05-23T11:42:02;100707.22;;;27.80;46.35
56042;BME280;48756;41.374;2.066;2023-05-23T11:44:28;100704.34;;;27.15;45.20
56042;BME280;48756;41.374;2.066;2023-05-23T11:47:00;100712.56;;;27.91;45.65
56042;BME280;48756;41.374;2.066;2023-05-23T11:49:27;100710.56;;;28.04;45.40
56042;BME280;48756;41.374;2.066;2023-05-23T11:51:52;100709.28;;;27.87;43.50
56042;BME280;48756;41.374;2.066;2023-05-23T11:54:21;100709.56;;;28.05;45.89
56042;BME280;48756;41.374;2.066;2023-05-23T11:56:46;100709.31;;;27.76;44.79
56042;BME280;48756;41.374;2.066;2023-05-23T11:59:11;100707.16;;;28.02;43.45
56042;BME280;48756;41.374;2.066;2023-05-23T12:01:37;100713.84;;;27.64;45.80
56042;BME280;48756;41.374;2.066;2023-05-23T12:04:07;100709.25;;;26.64;46.55
56042;BME280;48756;41.374;2.066;2023-05-23T12:06:33;100701.19;;;27.44;45.66
56042;BME280;48756;41.374;2.066;2023-05-23T12:08:59;100715.78;;;26.60;47.00
56042;BME280;48756;41.374;2.066;2023-05-23T12:11:24;100710.44;;;27.06;47.85
56042;BME280;48756;41.374;2.066;2023-05-23T12:13:51;100715.84;;;26.82;48.38
56042;BME280;48756;41.374;2.066;2023-05-23T12:16:17;100712.03;;;27.20;46.55
56042;BME280;48756;41.374;2.066;2023-05-23T12:18:42;100704.41;;;26.80;47.17
56042;BME280;48756;41.374;2.066;2023-05-23T12:21:08;100710.31;;;27.64;46.25
56042;BME280;48756;41.374;2.066;2023-05-23T12:23:33;100709.09;;;27.12;45.63
56042;BME280;48756;41.374;2.066;2023-05-23T12:26:00;100712.13;;;27.07;46.06
56042;BME280;48756;41.374;2.066;2023-05-23T12:31:06;100698.63;;;27.65;45.58
56042;BME280;48756;41.374;2.066;2023-05-23T12:33:32;100712.59;;;27.12;46.64
56042;BME280;48756;41.374;2.066;2023-05-23T12:36:02;100707.16;;;26.68;47.02
56042;BME280;48756;41.374;2.066;2023-05-23T12:38:27;100716.63;;;26.49;46.09
56042;BME280;48756;41.374;2.066;2023-05-23T12:41:11;100724.06;;;26.68;48.03
56042;BME280;48756;41.374;2.066;2023-05-23T12:43:40;100718.59;;;26.59;46.48
56042;BME280;48756;41.374;2.066;2023-05-23T12:46:06;100710.91;;;27.00;47.05
56042;BME280;48756;41.374;2.066;2023-05-23T12:48:32;100718.31;;;26.50;47.75
56042;BME280;48756;41.374;2.066;2023-05-23T12:50:57;100721.47;;;27.13;46.28
56042;BME280;48756;41.374;2.066;2023-05-23T12:53:23;100716.75;;;27.61;46.66
56042;BME280;48756;41.374;2.066;2023-05-23T12:55:48;100715.47;;;26.76;47.04
56042;BME280;48756;41.374;2.066;2023-05-23T12:58:14;100711.81;;;26.88;47.05
56042;BME280;48756;41.374;2.066;2023-05-23T13:00:39;100717.19;;;26.88;46.98
56042;BME280;48756;41.374;2.066;2023-05-23T13:03:05;100717.44;;;26.39;47.67
56042;BME280;48756;41.374;2.066;2023-05-23T13:05:30;100711.91;;;26.53;47.96
56042;BME280;48756;41.374;2.066;2023-05-23T13:07:56;100709.28;;;26.86;46.99
56042;BME280;48756;41.374;2.066;2023-05-23T13:10:23;100717.50;;;27.19;45.93
56042;BME280;48756;41.374;2.066;2023-05-23T13:12:49;100712.75;;;27.22;46.62
56042;BME280;48756;41.374;2.066;2023-05-23T13:15:14;100706.16;;;27.71;45.27